This is the latest recevied weather packets stored in our database for station/object OH2HCY. If no packets are shown the sender has not sent any weather packets the latest 1 day(s).
| Time | Temp. | Humidity | Pressure | Rain* | Wind** | Luminosity | Snow |
|---|---|---|---|---|---|---|---|
| 1778090030 | 9.44° C | 43% | 1011.5 hPa | - | - | - | - |
| 1778089482 | 9.44° C | 43% | 1011.4 hPa | - | - | - | - |
| 1778088935 | 9.44° C | 42% | 1011.2 hPa | - | - | - | - |
| 1778088415 | 10° C | 40% | 1011.1 hPa | - | - | - | - |
| 1778087885 | 10° C | 40% | 1011 hPa | - | - | - | - |
| 1778086825 | 10° C | 38% | 1010.8 hPa | - | - | - | - |
| 1778085100 | 10° C | 39% | 1010.8 hPa | - | - | - | - |
| 1778084015 | 10° C | 38% | 1010.7 hPa | - | - | - | - |
| 1778083520 | 10° C | 39% | 1010.7 hPa | - | - | - | - |
| 1778082952 | 10° C | 40% | 1010.7 hPa | - | - | - | - |
| 1778082470 | 10° C | 39% | 1010.8 hPa | - | - | - | - |
| 1778081894 | 10° C | 40% | 1010.7 hPa | - | - | - | - |
| 1778081330 | 10° C | 40% | 1010.6 hPa | - | - | - | - |
| 1778080740 | 10.56° C | 38% | 1010.3 hPa | - | - | - | - |
| 1778079655 | 11.11° C | 34% | 1010.2 hPa | - | - | - | - |
| 1778079135 | 10.56° C | 33% | 1010.4 hPa | - | - | - | - |
| 1778078615 | 11.11° C | 33% | 1010.3 hPa | - | - | - | - |
| 1778078100 | 11.11° C | 32% | 1010.1 hPa | - | - | - | - |
| 1778077565 | 11.11° C | 31% | 1010.1 hPa | - | - | - | - |
| 1778076470 | 10.56° C | 32% | 1010.1 hPa | - | - | - | - |
| 1778075900 | 11.67° C | 30% | 1009.8 hPa | - | - | - | - |
| 1778075355 | 11.11° C | 32% | 1010 hPa | - | - | - | - |
| 1778074230 | 10.56° C | 40% | 1010.1 hPa | - | - | - | - |
| 1778073700 | 10.56° C | 41% | 1010.2 hPa | - | - | - | - |
| 1778073145 | 10° C | 42% | 1010.3 hPa | - | - | - | - |
* Rain since midnight (hover to see other rain measurements)
** Current wind speed in m/s (hover to see current wind gust speed)